Terminal Aerodrome Forecast
Issued by NWS Shreveport, LA

Home | Current Version | Previous Version | Text Only | Print | Product List | Glossary On
Versions: 1 2 3 4 5 6 7 8 9 10 11 12 13 14 15 16 17 18
000
FTUS44 KSHV 220500 RRA
TAFLFK
TAF
KLFK 220551Z 2206/2306 12006KT P6SM BKN030 OVC050
      TEMPO 2208/2210 5SM -RA BR OVC015
     FM221300 13009KT 3SM BR VCSH BKN007 OVC020
     FM222300 12007KT 4SM -RA OVC015
     FM230200 11010KT 4SM -RA BR OVC007=

USA.gov is the U.S. government's official web portal to all federal, state and local government web resources and services.